sensor_id;sensor_type;location;lat;lon;timestamp;P1;durP1;ratioP1;P2;durP2;ratioP2
64615;SDS011;51027;42.162;24.754;2023-01-19T00:01:20;20.25;;;4.45;;
64615;SDS011;51027;42.162;24.754;2023-01-19T00:03:46;21.48;;;4.10;;
64615;SDS011;51027;42.162;24.754;2023-01-19T00:06:11;16.95;;;4.25;;
64615;SDS011;51027;42.162;24.754;2023-01-19T00:08:37;14.05;;;3.70;;
64615;SDS011;51027;42.162;24.754;2023-01-19T00:11:03;22.02;;;5.45;;
64615;SDS011;51027;42.162;24.754;2023-01-19T00:13:29;23.83;;;4.43;;
64615;SDS011;51027;42.162;24.754;2023-01-19T00:15:55;15.18;;;4.25;;
64615;SDS011;51027;42.162;24.754;2023-01-19T00:18:21;24.00;;;4.90;;
64615;SDS011;51027;42.162;24.754;2023-01-19T00:20:46;26.35;;;4.50;;
64615;SDS011;51027;42.162;24.754;2023-01-19T00:23:12;24.13;;;4.45;;
64615;SDS011;51027;42.162;24.754;2023-01-19T00:25:39;19.10;;;4.57;;
64615;SDS011;51027;42.162;24.754;2023-01-19T00:28:08;15.35;;;4.60;;
64615;SDS011;51027;42.162;24.754;2023-01-19T00:30:34;21.98;;;5.03;;
64615;SDS011;51027;42.162;24.754;2023-01-19T00:32:59;21.95;;;4.68;;
64615;SDS011;51027;42.162;24.754;2023-01-19T00:35:25;17.25;;;3.80;;
64615;SDS011;51027;42.162;24.754;2023-01-19T00:37:50;19.70;;;3.83;;
64615;SDS011;51027;42.162;24.754;2023-01-19T00:40:15;24.30;;;5.07;;
64615;SDS011;51027;42.162;24.754;2023-01-19T00:42:41;27.65;;;4.82;;
64615;SDS011;51027;42.162;24.754;2023-01-19T00:45:13;21.48;;;4.53;;
64615;SDS011;51027;42.162;24.754;2023-01-19T00:47:40;19.02;;;4.50;;
64615;SDS011;51027;42.162;24.754;2023-01-19T00:50:08;25.27;;;5.15;;
64615;SDS011;51027;42.162;24.754;2023-01-19T00:52:37;15.48;;;3.38;;
64615;SDS011;51027;42.162;24.754;2023-01-19T00:55:03;26.13;;;4.75;;
64615;SDS011;51027;42.162;24.754;2023-01-19T00:57:29;23.50;;;4.65;;
64615;SDS011;51027;42.162;24.754;2023-01-19T00:59:55;18.65;;;3.78;;
64615;SDS011;51027;42.162;24.754;2023-01-19T01:02:20;29.58;;;4.65;;
64615;SDS011;51027;42.162;24.754;2023-01-19T01:04:46;22.65;;;4.32;;
64615;SDS011;51027;42.162;24.754;2023-01-19T01:07:11;19.42;;;3.85;;
64615;SDS011;51027;42.162;24.754;2023-01-19T01:09:37;22.63;;;4.95;;
64615;SDS011;51027;42.162;24.754;2023-01-19T01:12:02;23.63;;;4.13;;
64615;SDS011;51027;42.162;24.754;2023-01-19T01:14:28;30.63;;;4.45;;
64615;SDS011;51027;42.162;24.754;2023-01-19T01:16:53;20.33;;;3.75;;
64615;SDS011;51027;42.162;24.754;2023-01-19T01:19:19;16.27;;;3.90;;
64615;SDS011;51027;42.162;24.754;2023-01-19T01:21:44;17.45;;;3.67;;
64615;SDS011;51027;42.162;24.754;2023-01-19T01:24:10;23.80;;;4.43;;
64615;SDS011;51027;42.162;24.754;2023-01-19T01:26:35;29.70;;;5.43;;
64615;SDS011;51027;42.162;24.754;2023-01-19T01:29:01;23.10;;;3.95;;
64615;SDS011;51027;42.162;24.754;2023-01-19T01:31:26;25.60;;;4.82;;
64615;SDS011;51027;42.162;24.754;2023-01-19T01:33:52;19.40;;;4.55;;
64615;SDS011;51027;42.162;24.754;2023-01-19T01:36:17;18.88;;;4.63;;
64615;SDS011;51027;42.162;24.754;2023-01-19T01:38:43;16.65;;;4.20;;
64615;SDS011;51027;42.162;24.754;2023-01-19T01:41:09;22.98;;;5.00;;
64615;SDS011;51027;42.162;24.754;2023-01-19T01:43:48;25.65;;;5.30;;
64615;SDS011;51027;42.162;24.754;2023-01-19T01:46:17;14.52;;;3.35;;
64615;SDS011;51027;42.162;24.754;2023-01-19T01:48:45;27.70;;;5.47;;
64615;SDS011;51027;42.162;24.754;2023-01-19T01:51:27;26.67;;;6.85;;
64615;SDS011;51027;42.162;24.754;2023-01-19T01:56:35;20.33;;;4.40;;
64615;SDS011;51027;42.162;24.754;2023-01-19T01:59:04;22.73;;;5.68;;
64615;SDS011;51027;42.162;24.754;2023-01-19T02:01:32;23.95;;;4.50;;
64615;SDS011;51027;42.162;24.754;2023-01-19T02:04:17;25.00;;;4.57;;
64615;SDS011;51027;42.162;24.754;2023-01-19T02:06:43;22.85;;;5.30;;
64615;SDS011;51027;42.162;24.754;2023-01-19T02:09:27;19.58;;;4.03;;
64615;SDS011;51027;42.162;24.754;2023-01-19T02:12:15;26.83;;;5.45;;
64615;SDS011;51027;42.162;24.754;2023-01-19T02:15:00;20.15;;;3.97;;
64615;SDS011;51027;42.162;24.754;2023-01-19T02:17:25;18.63;;;4.45;;
64615;SDS011;51027;42.162;24.754;2023-01-19T02:19:51;23.50;;;4.85;;
64615;SDS011;51027;42.162;24.754;2023-01-19T02:22:23;19.30;;;4.32;;
64615;SDS011;51027;42.162;24.754;2023-01-19T02:24:55;18.95;;;3.85;;
64615;SDS011;51027;42.162;24.754;2023-01-19T02:27:21;15.23;;;4.13;;
64615;SDS011;51027;42.162;24.754;2023-01-19T02:29:47;17.13;;;5.05;;
64615;SDS011;51027;42.162;24.754;2023-01-19T02:32:12;19.25;;;4.50;;
64615;SDS011;51027;42.162;24.754;2023-01-19T02:34:38;27.70;;;5.10;;
64615;SDS011;51027;42.162;24.754;2023-01-19T02:37:08;15.25;;;4.43;;
64615;SDS011;51027;42.162;24.754;2023-01-19T02:42:24;21.85;;;4.65;;
64615;SDS011;51027;42.162;24.754;2023-01-19T02:44:53;20.48;;;4.15;;
64615;SDS011;51027;42.162;24.754;2023-01-19T02:47:20;19.55;;;4.20;;
64615;SDS011;51027;42.162;24.754;2023-01-19T02:49:55;18.20;;;4.05;;
64615;SDS011;51027;42.162;24.754;2023-01-19T02:52:21;17.05;;;3.65;;
64615;SDS011;51027;42.162;24.754;2023-01-19T02:59:52;17.90;;;4.38;;
64615;SDS011;51027;42.162;24.754;2023-01-19T03:13:08;27.55;;;6.80;;
64615;SDS011;51027;42.162;24.754;2023-01-19T03:15:49;18.40;;;5.32;;
64615;SDS011;51027;42.162;24.754;2023-01-19T03:18:22;25.65;;;7.07;;
64615;SDS011;51027;42.162;24.754;2023-01-19T03:20:51;27.55;;;5.40;;
64615;SDS011;51027;42.162;24.754;2023-01-19T03:23:19;22.45;;;4.82;;
64615;SDS011;51027;42.162;24.754;2023-01-19T03:25:49;19.27;;;4.82;;
64615;SDS011;51027;42.162;24.754;2023-01-19T03:28:17;19.05;;;4.97;;
64615;SDS011;51027;42.162;24.754;2023-01-19T03:30:46;23.08;;;5.63;;
64615;SDS011;51027;42.162;24.754;2023-01-19T03:33:25;21.00;;;4.80;;
64615;SDS011;51027;42.162;24.754;2023-01-19T03:36:07;21.60;;;4.53;;
64615;SDS011;51027;42.162;24.754;2023-01-19T03:38:37;19.95;;;4.70;;
64615;SDS011;51027;42.162;24.754;2023-01-19T03:41:06;21.92;;;4.18;;
64615;SDS011;51027;42.162;24.754;2023-01-19T03:43:35;15.43;;;3.33;;
64615;SDS011;51027;42.162;24.754;2023-01-19T03:46:03;19.80;;;4.40;;
64615;SDS011;51027;42.162;24.754;2023-01-19T03:48:30;18.55;;;4.25;;
64615;SDS011;51027;42.162;24.754;2023-01-19T03:50:56;25.73;;;5.65;;
64615;SDS011;51027;42.162;24.754;2023-01-19T03:53:22;21.35;;;4.57;;
64615;SDS011;51027;42.162;24.754;2023-01-19T03:55:49;18.38;;;4.85;;
64615;SDS011;51027;42.162;24.754;2023-01-19T03:58:15;16.33;;;4.70;;
64615;SDS011;51027;42.162;24.754;2023-01-19T04:00:41;18.83;;;4.80;;
64615;SDS011;51027;42.162;24.754;2023-01-19T04:03:11;20.70;;;5.38;;
64615;SDS011;51027;42.162;24.754;2023-01-19T04:05:39;23.73;;;5.53;;
64615;SDS011;51027;42.162;24.754;2023-01-19T04:08:04;20.65;;;4.60;;
64615;SDS011;51027;42.162;24.754;2023-01-19T04:10:30;27.27;;;6.32;;
64615;SDS011;51027;42.162;24.754;2023-01-19T04:12:56;23.35;;;5.28;;
64615;SDS011;51027;42.162;24.754;2023-01-19T04:15:23;22.75;;;4.50;;
64615;SDS011;51027;42.162;24.754;2023-01-19T04:17:49;19.67;;;4.60;;
64615;SDS011;51027;42.162;24.754;2023-01-19T04:20:14;22.95;;;4.85;;
64615;SDS011;51027;42.162;24.754;2023-01-19T04:22:40;22.80;;;5.93;;
64615;SDS011;51027;42.162;24.754;2023-01-19T04:25:06;24.85;;;6.00;;
64615;SDS011;51027;42.162;24.754;2023-01-19T04:27:33;24.30;;;5.78;;
64615;SDS011;51027;42.162;24.754;2023-01-19T04:30:00;30.73;;;5.13;;
64615;SDS011;51027;42.162;24.754;2023-01-19T04:32:27;23.83;;;4.97;;
64615;SDS011;51027;42.162;24.754;2023-01-19T04:34:53;25.42;;;4.82;;
64615;SDS011;51027;42.162;24.754;2023-01-19T04:37:18;21.13;;;5.97;;
64615;SDS011;51027;42.162;24.754;2023-01-19T04:39:43;22.30;;;5.57;;
64615;SDS011;51027;42.162;24.754;2023-01-19T04:42:09;20.40;;;5.13;;
64615;SDS011;51027;42.162;24.754;2023-01-19T04:44:34;21.83;;;5.20;;
64615;SDS011;51027;42.162;24.754;2023-01-19T04:47:00;22.20;;;4.75;;
64615;SDS011;51027;42.162;24.754;2023-01-19T04:49:26;19.52;;;5.28;;
64615;SDS011;51027;42.162;24.754;2023-01-19T04:51:51;28.80;;;5.57;;
64615;SDS011;51027;42.162;24.754;2023-01-19T04:54:18;23.13;;;5.53;;
64615;SDS011;51027;42.162;24.754;2023-01-19T04:56:43;18.00;;;4.65;;
64615;SDS011;51027;42.162;24.754;2023-01-19T04:59:09;20.33;;;5.60;;
64615;SDS011;51027;42.162;24.754;2023-01-19T05:01:34;22.13;;;6.05;;
64615;SDS011;51027;42.162;24.754;2023-01-19T05:04:00;25.23;;;6.70;;
64615;SDS011;51027;42.162;24.754;2023-01-19T05:06:27;28.73;;;7.55;;
64615;SDS011;51027;42.162;24.754;2023-01-19T05:08:53;23.35;;;6.43;;
64615;SDS011;51027;42.162;24.754;2023-01-19T05:11:18;19.05;;;6.93;;
64615;SDS011;51027;42.162;24.754;2023-01-19T05:13:44;19.60;;;6.63;;
64615;SDS011;51027;42.162;24.754;2023-01-19T05:16:09;20.92;;;6.57;;
64615;SDS011;51027;42.162;24.754;2023-01-19T05:18:34;30.65;;;6.85;;
64615;SDS011;51027;42.162;24.754;2023-01-19T05:21:01;26.92;;;6.88;;
64615;SDS011;51027;42.162;24.754;2023-01-19T05:23:27;21.00;;;6.78;;
64615;SDS011;51027;42.162;24.754;2023-01-19T05:25:55;24.98;;;7.22;;
64615;SDS011;51027;42.162;24.754;2023-01-19T05:28:20;22.40;;;6.38;;
64615;SDS011;51027;42.162;24.754;2023-01-19T05:30:48;31.15;;;6.57;;
64615;SDS011;51027;42.162;24.754;2023-01-19T05:33:14;18.65;;;5.78;;
64615;SDS011;51027;42.162;24.754;2023-01-19T05:35:39;22.80;;;5.65;;
64615;SDS011;51027;42.162;24.754;2023-01-19T05:38:05;22.63;;;5.22;;
64615;SDS011;51027;42.162;24.754;2023-01-19T05:40:30;21.88;;;5.80;;
64615;SDS011;51027;42.162;24.754;2023-01-19T05:42:56;22.15;;;5.13;;
64615;SDS011;51027;42.162;24.754;2023-01-19T05:45:25;23.73;;;6.50;;
64615;SDS011;51027;42.162;24.754;2023-01-19T05:47:53;25.63;;;7.55;;
64615;SDS011;51027;42.162;24.754;2023-01-19T05:50:18;26.20;;;6.40;;
64615;SDS011;51027;42.162;24.754;2023-01-19T05:52:44;21.42;;;6.47;;
64615;SDS011;51027;42.162;24.754;2023-01-19T05:55:10;28.75;;;7.15;;
64615;SDS011;51027;42.162;24.754;2023-01-19T05:57:35;24.45;;;6.90;;
64615;SDS011;51027;42.162;24.754;2023-01-19T06:00:02;25.90;;;6.65;;
64615;SDS011;51027;42.162;24.754;2023-01-19T06:02:30;24.83;;;6.87;;
64615;SDS011;51027;42.162;24.754;2023-01-19T06:04:55;27.95;;;6.97;;
64615;SDS011;51027;42.162;24.754;2023-01-19T06:07:21;30.77;;;7.40;;
64615;SDS011;51027;42.162;24.754;2023-01-19T06:09:47;25.00;;;8.43;;
64615;SDS011;51027;42.162;24.754;2023-01-19T06:12:12;26.10;;;6.95;;
64615;SDS011;51027;42.162;24.754;2023-01-19T06:14:38;24.92;;;7.10;;
64615;SDS011;51027;42.162;24.754;2023-01-19T06:17:04;21.67;;;7.13;;
64615;SDS011;51027;42.162;24.754;2023-01-19T06:19:31;26.83;;;7.50;;
64615;SDS011;51027;42.162;24.754;2023-01-19T06:21:56;29.92;;;7.63;;
64615;SDS011;51027;42.162;24.754;2023-01-19T06:24:22;33.97;;;8.20;;
64615;SDS011;51027;42.162;24.754;2023-01-19T06:26:48;25.92;;;7.10;;
64615;SDS011;51027;42.162;24.754;2023-01-19T06:29:13;29.55;;;6.95;;
64615;SDS011;51027;42.162;24.754;2023-01-19T06:31:39;25.25;;;6.60;;
64615;SDS011;51027;42.162;24.754;2023-01-19T06:34:05;24.67;;;7.03;;
64615;SDS011;51027;42.162;24.754;2023-01-19T06:36:30;22.65;;;6.75;;
64615;SDS011;51027;42.162;24.754;2023-01-19T06:38:55;25.50;;;6.57;;
64615;SDS011;51027;42.162;24.754;2023-01-19T06:41:21;24.38;;;6.25;;
64615;SDS011;51027;42.162;24.754;2023-01-19T06:43:46;21.15;;;6.38;;
64615;SDS011;51027;42.162;24.754;2023-01-19T06:46:12;21.45;;;5.00;;
64615;SDS011;51027;42.162;24.754;2023-01-19T06:48:37;23.20;;;6.38;;
64615;SDS011;51027;42.162;24.754;2023-01-19T06:51:03;22.02;;;6.57;;
64615;SDS011;51027;42.162;24.754;2023-01-19T06:53:29;23.95;;;6.07;;
64615;SDS011;51027;42.162;24.754;2023-01-19T06:55:58;23.52;;;5.80;;
64615;SDS011;51027;42.162;24.754;2023-01-19T06:58:26;24.17;;;5.63;;
64615;SDS011;51027;42.162;24.754;2023-01-19T07:00:52;27.00;;;5.50;;
64615;SDS011;51027;42.162;24.754;2023-01-19T07:03:19;23.20;;;6.30;;
64615;SDS011;51027;42.162;24.754;2023-01-19T07:05:46;22.40;;;6.22;;
64615;SDS011;51027;42.162;24.754;2023-01-19T07:08:15;27.73;;;6.60;;
64615;SDS011;51027;42.162;24.754;2023-01-19T07:10:41;27.17;;;6.63;;
64615;SDS011;51027;42.162;24.754;2023-01-19T07:13:06;31.42;;;7.32;;
64615;SDS011;51027;42.162;24.754;2023-01-19T07:15:31;30.65;;;7.28;;
64615;SDS011;51027;42.162;24.754;2023-01-19T07:17:57;28.75;;;5.85;;
64615;SDS011;51027;42.162;24.754;2023-01-19T07:20:23;25.27;;;7.03;;
64615;SDS011;51027;42.162;24.754;2023-01-19T07:22:54;33.45;;;6.70;;
64615;SDS011;51027;42.162;24.754;2023-01-19T07:25:20;30.50;;;6.07;;
64615;SDS011;51027;42.162;24.754;2023-01-19T07:27:46;38.47;;;8.23;;
64615;SDS011;51027;42.162;24.754;2023-01-19T07:30:12;27.52;;;8.90;;
64615;SDS011;51027;42.162;24.754;2023-01-19T07:32:40;29.48;;;8.23;;
64615;SDS011;51027;42.162;24.754;2023-01-19T07:35:07;26.30;;;6.88;;
64615;SDS011;51027;42.162;24.754;2023-01-19T07:37:33;31.27;;;6.60;;
64615;SDS011;51027;42.162;24.754;2023-01-19T07:39:59;26.15;;;6.30;;
64615;SDS011;51027;42.162;24.754;2023-01-19T07:42:24;24.48;;;6.00;;
64615;SDS011;51027;42.162;24.754;2023-01-19T07:44:50;27.13;;;5.60;;
64615;SDS011;51027;42.162;24.754;2023-01-19T07:47:16;27.15;;;6.32;;
64615;SDS011;51027;42.162;24.754;2023-01-19T07:49:41;25.70;;;5.80;;
64615;SDS011;51027;42.162;24.754;2023-01-19T07:52:06;28.38;;;7.20;;
64615;SDS011;51027;42.162;24.754;2023-01-19T07:54:32;25.52;;;7.15;;
64615;SDS011;51027;42.162;24.754;2023-01-19T07:56:57;27.48;;;6.05;;
64615;SDS011;51027;42.162;24.754;2023-01-19T07:59:25;28.85;;;6.93;;
64615;SDS011;51027;42.162;24.754;2023-01-19T08:01:51;25.30;;;5.70;;
64615;SDS011;51027;42.162;24.754;2023-01-19T08:04:17;24.27;;;4.90;;
64615;SDS011;51027;42.162;24.754;2023-01-19T08:06:43;21.42;;;5.97;;
64615;SDS011;51027;42.162;24.754;2023-01-19T08:09:10;22.23;;;5.80;;
64615;SDS011;51027;42.162;24.754;2023-01-19T08:11:36;24.02;;;5.13;;
64615;SDS011;51027;42.162;24.754;2023-01-19T08:14:01;28.60;;;5.90;;
64615;SDS011;51027;42.162;24.754;2023-01-19T08:16:27;27.45;;;6.07;;
64615;SDS011;51027;42.162;24.754;2023-01-19T08:18:52;26.83;;;6.18;;
64615;SDS011;51027;42.162;24.754;2023-01-19T08:21:18;23.17;;;6.05;;
64615;SDS011;51027;42.162;24.754;2023-01-19T08:23:43;28.90;;;6.07;;
64615;SDS011;51027;42.162;24.754;2023-01-19T08:26:19;25.23;;;5.93;;
64615;SDS011;51027;42.162;24.754;2023-01-19T08:28:55;27.38;;;5.20;;
64615;SDS011;51027;42.162;24.754;2023-01-19T08:31:22;28.10;;;5.50;;
64615;SDS011;51027;42.162;24.754;2023-01-19T08:33:48;22.85;;;5.53;;
64615;SDS011;51027;42.162;24.754;2023-01-19T08:36:13;29.17;;;5.63;;
64615;SDS011;51027;42.162;24.754;2023-01-19T08:38:39;25.63;;;4.97;;
64615;SDS011;51027;42.162;24.754;2023-01-19T08:41:07;31.15;;;6.60;;
64615;SDS011;51027;42.162;24.754;2023-01-19T08:43:33;19.77;;;4.90;;
64615;SDS011;51027;42.162;24.754;2023-01-19T08:45:59;26.08;;;5.38;;
64615;SDS011;51027;42.162;24.754;2023-01-19T08:48:25;22.42;;;5.32;;
64615;SDS011;51027;42.162;24.754;2023-01-19T08:50:51;25.65;;;5.63;;
64615;SDS011;51027;42.162;24.754;2023-01-19T08:53:17;20.85;;;3.85;;
64615;SDS011;51027;42.162;24.754;2023-01-19T08:55:45;22.63;;;5.00;;
64615;SDS011;51027;42.162;24.754;2023-01-19T08:58:10;26.98;;;6.80;;
64615;SDS011;51027;42.162;24.754;2023-01-19T09:00:36;28.38;;;6.30;;
64615;SDS011;51027;42.162;24.754;2023-01-19T09:03:03;26.60;;;8.05;;
64615;SDS011;51027;42.162;24.754;2023-01-19T09:05:31;27.85;;;6.35;;
64615;SDS011;51027;42.162;24.754;2023-01-19T09:08:01;31.52;;;6.13;;
64615;SDS011;51027;42.162;24.754;2023-01-19T09:10:32;26.05;;;5.70;;
64615;SDS011;51027;42.162;24.754;2023-01-19T09:15:32;27.75;;;6.97;;
64615;SDS011;51027;42.162;24.754;2023-01-19T09:17:59;31.35;;;6.63;;
64615;SDS011;51027;42.162;24.754;2023-01-19T09:20:26;24.77;;;6.53;;
64615;SDS011;51027;42.162;24.754;2023-01-19T09:22:55;23.15;;;6.30;;
64615;SDS011;51027;42.162;24.754;2023-01-19T09:25:21;30.23;;;5.68;;
64615;SDS011;51027;42.162;24.754;2023-01-19T09:27:46;29.48;;;6.72;;
64615;SDS011;51027;42.162;24.754;2023-01-19T09:30:11;29.02;;;5.90;;
64615;SDS011;51027;42.162;24.754;2023-01-19T09:32:37;25.20;;;6.32;;
64615;SDS011;51027;42.162;24.754;2023-01-19T09:35:03;27.42;;;6.22;;
64615;SDS011;51027;42.162;24.754;2023-01-19T09:37:28;30.90;;;5.65;;
64615;SDS011;51027;42.162;24.754;2023-01-19T09:39:53;28.17;;;5.85;;
64615;SDS011;51027;42.162;24.754;2023-01-19T09:48:25;26.13;;;6.65;;
64615;SDS011;51027;42.162;24.754;2023-01-19T09:53:26;24.05;;;4.90;;
64615;SDS011;51027;42.162;24.754;2023-01-19T09:56:06;30.25;;;5.75;;
64615;SDS011;51027;42.162;24.754;2023-01-19T09:58:35;30.08;;;6.07;;
64615;SDS011;51027;42.162;24.754;2023-01-19T10:01:06;21.48;;;4.80;;
64615;SDS011;51027;42.162;24.754;2023-01-19T10:03:47;25.90;;;5.82;;
64615;SDS011;51027;42.162;24.754;2023-01-19T10:06:16;29.48;;;7.10;;
64615;SDS011;51027;42.162;24.754;2023-01-19T10:13:51;30.77;;;5.50;;
64615;SDS011;51027;42.162;24.754;2023-01-19T10:19:11;32.20;;;5.93;;
64615;SDS011;51027;42.162;24.754;2023-01-19T10:21:50;27.33;;;5.32;;
64615;SDS011;51027;42.162;24.754;2023-01-19T10:26:53;30.50;;;5.75;;
64615;SDS011;51027;42.162;24.754;2023-01-19T10:29:33;22.88;;;5.57;;
64615;SDS011;51027;42.162;24.754;2023-01-19T10:34:35;25.23;;;5.22;;
64615;SDS011;51027;42.162;24.754;2023-01-19T10:37:11;28.17;;;5.35;;
64615;SDS011;51027;42.162;24.754;2023-01-19T10:39:42;28.23;;;7.30;;
64615;SDS011;51027;42.162;24.754;2023-01-19T10:42:11;22.40;;;5.53;;
64615;SDS011;51027;42.162;24.754;2023-01-19T10:44:39;24.33;;;4.90;;
64615;SDS011;51027;42.162;24.754;2023-01-19T10:47:05;24.67;;;4.80;;
64615;SDS011;51027;42.162;24.754;2023-01-19T10:49:40;26.55;;;4.68;;
64615;SDS011;51027;42.162;24.754;2023-01-19T10:52:07;29.52;;;6.20;;
64615;SDS011;51027;42.162;24.754;2023-01-19T10:54:43;23.50;;;4.90;;
64615;SDS011;51027;42.162;24.754;2023-01-19T10:57:08;30.45;;;5.68;;
64615;SDS011;51027;42.162;24.754;2023-01-19T10:59:49;26.13;;;5.50;;
64615;SDS011;51027;42.162;24.754;2023-01-19T11:02:19;23.67;;;5.05;;
64615;SDS011;51027;42.162;24.754;2023-01-19T11:04:50;25.90;;;4.68;;
64615;SDS011;51027;42.162;24.754;2023-01-19T11:10:10;25.23;;;4.45;;
64615;SDS011;51027;42.162;24.754;2023-01-19T11:12:42;25.63;;;5.03;;
64615;SDS011;51027;42.162;24.754;2023-01-19T11:18:00;19.55;;;3.97;;
64615;SDS011;51027;42.162;24.754;2023-01-19T11:20:28;20.35;;;4.05;;
64615;SDS011;51027;42.162;24.754;2023-01-19T11:23:03;18.48;;;4.13;;
64615;SDS011;51027;42.162;24.754;2023-01-19T11:25:31;27.10;;;5.60;;
64615;SDS011;51027;42.162;24.754;2023-01-19T11:27:59;21.08;;;4.63;;
64615;SDS011;51027;42.162;24.754;2023-01-19T11:30:26;25.77;;;5.00;;
64615;SDS011;51027;42.162;24.754;2023-01-19T11:32:52;26.60;;;5.05;;
64615;SDS011;51027;42.162;24.754;2023-01-19T11:35:37;20.70;;;4.07;;
64615;SDS011;51027;42.162;24.754;2023-01-19T11:38:05;24.20;;;4.85;;
64615;SDS011;51027;42.162;24.754;2023-01-19T11:40:31;24.73;;;5.13;;
64615;SDS011;51027;42.162;24.754;2023-01-19T11:42:57;20.00;;;4.32;;
64615;SDS011;51027;42.162;24.754;2023-01-19T11:45:23;11.73;;;3.13;;
64615;SDS011;51027;42.162;24.754;2023-01-19T11:47:50;18.23;;;3.17;;
64615;SDS011;51027;42.162;24.754;2023-01-19T11:50:22;15.60;;;2.50;;
64615;SDS011;51027;42.162;24.754;2023-01-19T11:58:13;12.50;;;2.83;;
64615;SDS011;51027;42.162;24.754;2023-01-19T12:00:49;11.70;;;2.38;;
64615;SDS011;51027;42.162;24.754;2023-01-19T12:06:03;17.15;;;3.75;;
64615;SDS011;51027;42.162;24.754;2023-01-19T12:08:42;14.15;;;2.60;;
64615;SDS011;51027;42.162;24.754;2023-01-19T12:11:13;13.63;;;4.05;;
64615;SDS011;51027;42.162;24.754;2023-01-19T12:13:44;14.10;;;2.95;;
64615;SDS011;51027;42.162;24.754;2023-01-19T12:16:12;7.68;;;1.83;;
64615;SDS011;51027;42.162;24.754;2023-01-19T12:18:43;14.20;;;3.00;;
64615;SDS011;51027;42.162;24.754;2023-01-19T12:21:20;6.78;;;2.28;;
64615;SDS011;51027;42.162;24.754;2023-01-19T12:23:58;10.52;;;2.60;;
64615;SDS011;51027;42.162;24.754;2023-01-19T12:26:34;13.77;;;2.65;;
64615;SDS011;51027;42.162;24.754;2023-01-19T12:29:12;11.93;;;2.53;;
64615;SDS011;51027;42.162;24.754;2023-01-19T12:31:43;13.80;;;2.42;;
64615;SDS011;51027;42.162;24.754;2023-01-19T12:36:51;12.13;;;2.30;;
64615;SDS011;51027;42.162;24.754;2023-01-19T12:39:25;8.13;;;2.10;;
64615;SDS011;51027;42.162;24.754;2023-01-19T12:42:06;11.70;;;2.47;;
64615;SDS011;51027;42.162;24.754;2023-01-19T12:44:37;7.03;;;1.92;;
64615;SDS011;51027;42.162;24.754;2023-01-19T12:52:13;6.40;;;2.05;;
64615;SDS011;51027;42.162;24.754;2023-01-19T12:54:55;7.90;;;2.30;;
64615;SDS011;51027;42.162;24.754;2023-01-19T12:57:26;10.85;;;2.33;;
64615;SDS011;51027;42.162;24.754;2023-01-19T13:00:06;7.28;;;2.08;;
64615;SDS011;51027;42.162;24.754;2023-01-19T13:02:56;10.73;;;2.22;;
64615;SDS011;51027;42.162;24.754;2023-01-19T13:13:34;8.07;;;1.90;;
64615;SDS011;51027;42.162;24.754;2023-01-19T13:21:27;9.20;;;1.85;;
64615;SDS011;51027;42.162;24.754;2023-01-19T13:23:58;8.32;;;2.28;;
64615;SDS011;51027;42.162;24.754;2023-01-19T13:27:11;8.95;;;2.28;;
64615;SDS011;51027;42.162;24.754;2023-01-19T13:29:20;9.23;;;2.10;;
64615;SDS011;51027;42.162;24.754;2023-01-19T13:31:55;11.00;;;2.30;;
64615;SDS011;51027;42.162;24.754;2023-01-19T13:34:27;12.65;;;2.30;;
64615;SDS011;51027;42.162;24.754;2023-01-19T13:36:59;9.63;;;2.75;;
64615;SDS011;51027;42.162;24.754;2023-01-19T13:41:52;13.13;;;3.35;;
64615;SDS011;51027;42.162;24.754;2023-01-19T13:44:21;11.30;;;2.08;;
64615;SDS011;51027;42.162;24.754;2023-01-19T13:46:51;11.05;;;2.25;;
64615;SDS011;51027;42.162;24.754;2023-01-19T13:52:10;14.48;;;3.15;;
64615;SDS011;51027;42.162;24.754;2023-01-19T13:57:23;12.32;;;3.25;;
64615;SDS011;51027;42.162;24.754;2023-01-19T14:00:05;10.70;;;2.95;;
64615;SDS011;51027;42.162;24.754;2023-01-19T14:10:30;9.02;;;2.38;;
64615;SDS011;51027;42.162;24.754;2023-01-19T14:12:57;8.18;;;2.35;;
64615;SDS011;51027;42.162;24.754;2023-01-19T14:15:24;12.75;;;2.80;;
64615;SDS011;51027;42.162;24.754;2023-01-19T14:18:06;12.07;;;2.60;;
64615;SDS011;51027;42.162;24.754;2023-01-19T14:21:05;10.88;;;2.97;;
64615;SDS011;51027;42.162;24.754;2023-01-19T14:29:12;11.65;;;2.80;;
64615;SDS011;51027;42.162;24.754;2023-01-19T14:31:49;13.52;;;2.78;;
64615;SDS011;51027;42.162;24.754;2023-01-19T14:37:03;13.63;;;3.60;;
64615;SDS011;51027;42.162;24.754;2023-01-19T14:39:31;20.60;;;3.53;;
64615;SDS011;51027;42.162;24.754;2023-01-19T14:41:59;16.45;;;3.47;;
64615;SDS011;51027;42.162;24.754;2023-01-19T14:44:28;16.05;;;3.50;;
64615;SDS011;51027;42.162;24.754;2023-01-19T14:46:58;16.27;;;3.53;;
64615;SDS011;51027;42.162;24.754;2023-01-19T14:49:33;10.90;;;2.47;;
64615;SDS011;51027;42.162;24.754;2023-01-19T14:52:02;13.15;;;3.30;;
64615;SDS011;51027;42.162;24.754;2023-01-19T14:57:03;14.35;;;3.38;;
64615;SDS011;51027;42.162;24.754;2023-01-19T14:59:28;10.02;;;3.05;;
64615;SDS011;51027;42.162;24.754;2023-01-19T15:01:54;14.63;;;3.20;;
64615;SDS011;51027;42.162;24.754;2023-01-19T15:04:19;14.20;;;3.00;;
64615;SDS011;51027;42.162;24.754;2023-01-19T15:06:45;12.13;;;3.05;;
64615;SDS011;51027;42.162;24.754;2023-01-19T15:09:11;12.88;;;3.38;;
64615;SDS011;51027;42.162;24.754;2023-01-19T15:11:38;18.38;;;3.90;;
64615;SDS011;51027;42.162;24.754;2023-01-19T15:14:05;16.83;;;3.45;;
64615;SDS011;51027;42.162;24.754;2023-01-19T15:16:31;13.93;;;3.70;;
64615;SDS011;51027;42.162;24.754;2023-01-19T15:18:58;10.05;;;3.03;;
64615;SDS011;51027;42.162;24.754;2023-01-19T15:21:24;11.50;;;3.03;;
64615;SDS011;51027;42.162;24.754;2023-01-19T15:23:52;11.40;;;3.75;;
64615;SDS011;51027;42.162;24.754;2023-01-19T15:26:20;14.02;;;2.80;;
64615;SDS011;51027;42.162;24.754;2023-01-19T15:28:47;14.98;;;3.25;;
64615;SDS011;51027;42.162;24.754;2023-01-19T15:31:22;13.50;;;2.78;;
64615;SDS011;51027;42.162;24.754;2023-01-19T15:33:49;12.80;;;2.95;;
64615;SDS011;51027;42.162;24.754;2023-01-19T15:36:20;10.13;;;3.63;;
64615;SDS011;51027;42.162;24.754;2023-01-19T15:38:46;14.32;;;3.42;;
64615;SDS011;51027;42.162;24.754;2023-01-19T15:41:20;18.15;;;4.82;;
64615;SDS011;51027;42.162;24.754;2023-01-19T15:43:48;15.85;;;4.05;;
64615;SDS011;51027;42.162;24.754;2023-01-19T15:46:14;13.30;;;2.80;;
64615;SDS011;51027;42.162;24.754;2023-01-19T15:48:45;15.88;;;3.88;;
64615;SDS011;51027;42.162;24.754;2023-01-19T15:51:12;14.27;;;3.63;;
64615;SDS011;51027;42.162;24.754;2023-01-19T15:53:38;12.18;;;3.70;;
64615;SDS011;51027;42.162;24.754;2023-01-19T15:56:05;11.43;;;3.60;;
64615;SDS011;51027;42.162;24.754;2023-01-19T15:58:34;12.20;;;3.42;;
64615;SDS011;51027;42.162;24.754;2023-01-19T16:01:00;15.13;;;3.85;;
64615;SDS011;51027;42.162;24.754;2023-01-19T16:03:25;15.75;;;3.60;;
64615;SDS011;51027;42.162;24.754;2023-01-19T16:05:51;12.75;;;3.65;;
64615;SDS011;51027;42.162;24.754;2023-01-19T16:08:16;13.73;;;3.38;;
64615;SDS011;51027;42.162;24.754;2023-01-19T16:10:42;10.27;;;2.95;;
64615;SDS011;51027;42.162;24.754;2023-01-19T16:13:08;17.35;;;3.85;;
64615;SDS011;51027;42.162;24.754;2023-01-19T16:15:35;13.27;;;4.30;;